Etusivu
METAR-TAF:

METAR-TAF

Lentoasemat :

Stevens Point Municipal Airport

Stevens Point, Wisconsin, Yhdysvallat

Leveyspiiri: 44-32-42N, Pituuspiiri: 089-31-49W, korkeus merenpinnasta: 338 m

Tämänhetkinen sää

Tämä raportti tehtiin 33 minuuttia sitten, kello 16.35 UTC
Tuuli 9 kn lännestä/luoteesta puuskistuen 16 kn:hen
Lämpötila -9°C
Kosteus 40%
Ilmanpaine 1025 hPa
Näkyvyys: 16.1 km
selkeää

METAR: KSTE 011635Z AUTO 29009G16KT 10SM CLR M09/M20 A3026 RMK AO2 T10871197

Aika: 11:08 (17:08 UTC)


TAF: puuttuu

Säähavainnot ja -ennusteet yli 4000 lentoasemalta (METAR- ja TAF-raportit).

Käytössä olevat sääasemat on merkitty karttaan keltaisilla ja punaisilla pisteillä.

Aseta hiiri pisteen päälle nähdäksesi sääaseman nimen.

Klikkaa sitten nähdäksesi säähavainnot ja -ennusteet.

Kartan vaihtaminen: klikkaa mustalla rastilla varustettuja vihreitä pisteitä, niin voit zoomata sisään; viivalla varustettua vihreää pistettä, niin voit zoomata ulos tai vihreitä nuolia, niin pääset viereisille kartoille.


METAR-TAF: